Aviation Digital Data Service (ADDS)

Output produced by METARs form (1743 UTC 15 December 2017)
found at http://www.aviationweather.gov/adds/metars/
 
KPIB 151656Z AUTO 36007KT 10SM FEW100 06/M01 A3028 RMK AO2 SLP254 T00611006
KPIB 151556Z AUTO 34006KT 10SM CLR 06/00 A3027 RMK AO2 PRESRR SLP254 T00560000
KPIB 151456Z AUTO 36007KT 10SM CLR 05/01 A3022 RMK AO2 SLP236 T00500006 51028 TSNO
KPIB 151356Z AUTO 35006KT 10SM CLR 04/01 A3020 RMK AO2 SLP228 T00440006
KPIB 151256Z AUTO 36006KT 10SM CLR 04/01 A3016 RMK AO2 SLP214 T00390011
KPIB 151156Z AUTO 36005KT 10SM CLR 04/01 A3014 RMK AO2 SLP206 T00440011 10072 20044 53015
KPIB 151056Z AUTO 36007KT 10SM CLR 05/02 A3011 RMK AO2 SLP197 T00500017
KPIB 150956Z AUTO 36010KT 10SM CLR 06/02 A3010 RMK AO2 SLP193 T00560022
KPIB 150856Z AUTO 36008KT 10SM CLR 06/03 A3009 RMK AO2 SLP192 T00610033 53012
KPIB 150756Z AUTO 36008KT 10SM CLR 06/03 A3008 RMK AO2 SLP186 T00610033
KPIB 150656Z AUTO 34006KT 10SM CLR 07/04 A3007 RMK AO2 SLP181 T00720039
KPIB 150556Z AUTO 00000KT 9SM CLR 06/05 A3006 RMK AO2 SLP180 T00560050 10089 20050 401560000 53003
KPIB 150456Z AUTO 00000KT 10SM CLR 06/04 A3005 RMK AO2 SLP178 T00560044
KPIB 150356Z AUTO 00000KT 9SM CLR 05/04 A3005 RMK AO2 SLP176 T00500044
KPIB 150256Z AUTO 00000KT 10SM CLR 06/06 A3005 RMK AO2 SLP177 T00610056 51015
KPIB 150156Z AUTO 00000KT 10SM CLR 07/06 A3004 RMK AO2 SLP173 T00720061
KPIB 150056Z AUTO 00000KT 10SM CLR 08/06 A3002 RMK AO2 SLP169 T00780061 TSNO
KPIB 142356Z AUTO 00000KT 10SM CLR 09/07 A3001 RMK AO2 SLP163 T00890072 10156 20089 53013
KPIB 142256Z AUTO 00000KT 10SM CLR 11/07 A2998 RMK AO2 SLP154 T01110072
KPIB 142156Z AUTO 00000KT 10SM CLR 13/07 A2998 RMK AO2 SLP152 T01330072
KPIB 142105Z AUTO 00000KT 10SM FEW002 15/05 A2997 RMK AO2
KPIB 142056Z AUTO 00000KT 10SM CLR 15/05 A2997 RMK AO2 SLP147 T01500050 55008
KPIB 141956Z AUTO 19005KT 10SM CLR 16/04 A2996 RMK AO2 SLP147 T01560044
KPIB 141916Z AUTO VRB03KT 10SM FEW001 15/05 A2997 RMK AO2
KPIB 141856Z AUTO 00000KT 10SM CLR 14/05 A2998 RMK AO2 SLP152 T01440050
KPIB 141756Z AUTO 00000KT 10SM CLR 14/04 A2999 RMK AO2 SLP157 T01390039 10144 20000 58009
KPIB 141732Z AUTO 00000KT 10SM FEW001 13/03 A3001 RMK AO2
KPIB 141656Z AUTO VRB03KT 10SM CLR 14/04 A3002 RMK AO2 SLP167 T01390044
KPIB 141616Z AUTO 29004KT 10SM FEW002 12/04 A3004 RMK AO2
KPIB 141556Z AUTO 29004KT 10SM CLR 12/05 A3004 RMK AO2 SLP171 T01170050
KPIB 141456Z AUTO VRB03KT 10SM FEW001 08/04 A3002 RMK AO2 SLP166 T00830044 53013
KPIB 141356Z AUTO 00000KT 6SM BR CLR 03/02 A2999 RMK AO2 SLP158 T00280022
KPIB 141256Z AUTO 00000KT 4SM BR CLR 01/M01 A2998 RMK AO2 SLP155 T00061006 FZRANO
KPIB 141156Z AUTO 00000KT 5SM BR CLR 00/M01 A2998 RMK AO2 SLP154 T00001006 10067 20000 53006 FZRANO
KPIB 141056Z AUTO 00000KT 10SM CLR 01/00 A2996 RMK AO2 SLP149 T00110000 FZRANO
KPIB 140956Z AUTO 00000KT 9SM CLR 02/01 A2996 RMK AO2 SLP147 T00220011 FZRANO
KPIB 140856Z AUTO 00000KT 10SM CLR 03/02 A2996 RMK AO2 SLP147 T00280017 55007
KPIB 140756Z AUTO 00000KT 10SM CLR 04/02 A2996 RMK AO2 SLP145 T00440022
KPIB 140656Z AUTO 00000KT 10SM CLR 05/03 A2997 RMK AO2 SLP149 T00500028
KPIB 140556Z AUTO 00000KT 10SM CLR 07/03 A2998 RMK AO2 SLP155 T00670028 10083 20050 401441039 51002
KPIB 140456Z AUTO 00000KT 10SM CLR 05/02 A2998 RMK AO2 SLP154 T00500017
KPIB 140356Z AUTO 21003KT 10SM CLR 06/02 A2999 RMK AO2 SLP155 T00560017
KPIB 140256Z AUTO 22003KT 10SM CLR 07/01 A2998 RMK AO2 SLP154 T00670011 56003
KPIB 140056Z AUTO 20006KT 10SM CLR 08/01 A2998 RMK AO2 SLP155 T00830006
KPIB 132356Z AUTO 20004KT 10SM CLR 08/01 A2999 RMK AO2 SLP157 T00830011 10144 20083 58013
KPIB 132256Z AUTO 22003KT 10SM CLR 10/01 A3001 RMK AO2 SLP164 T01000006
KPIB 132211Z AUTO 20004KT 10SM FEW001 12/M01 A3002 RMK AO2
KPIB 132156Z AUTO 20003KT 10SM CLR 12/M01 A3002 RMK AO2 SLP167 T01221006
KPIB 132125Z AUTO 20004KT 10SM FEW001 12/M01 A3002 RMK AO2
KPIB 132056Z AUTO 20007KT 10SM CLR 14/M02 A3003 RMK AO2 SLP169 T01391017 58015
KPIB 131956Z AUTO 20008G14KT 10SM CLR 14/M03 A3004 RMK AO2 SLP172 T01391028
KPIB 131856Z AUTO VRB04KT 10SM FEW001 14/M03 A3007 RMK AO2 SLP184 T01391033
KPIB 131851Z AUTO VRB04G14KT 10SM FEW001 14/M03 A3007 RMK AO2
KPIB 131756Z AUTO 22008KT 190V250 10SM CLR 13/M03 A3010 RMK AO2 SLP194 T01281033 10128 21039 58018
KPIB 131656Z AUTO 19006KT 10SM CLR 11/M03 A3014 RMK AO2 SLP208 T01061033
KPIB 131556Z AUTO 16008KT 10SM FEW001 08/M03 A3016 RMK AO2 SLP217 T00781028
KPIB 131536Z AUTO 17008KT 10SM FEW001 07/M02 A3016 RMK AO2
KPIB 131456Z AUTO 15007KT 10SM CLR 04/M01 A3015 RMK AO2 SLP213 T00441011 50000
KPIB 131356Z AUTO 00000KT 6SM HZ CLR 02/M01 A3016 RMK AO2 SLP215 T00221006 FZRANO
KPIB 131256Z AUTO 00000KT 10SM CLR M03/M05 A3015 RMK AO2 SLP213 T10331050 FZRANO
KPIB 131156Z AUTO 00000KT 10SM CLR M03/M05 A3015 RMK AO2 SLP213 T10331050 10033 21033 55004 FZRANO
KPIB 131056Z AUTO 00000KT 9SM CLR M03/M04 A3014 RMK AO2 SLP210 T10281044 FZRANO
KPIB 130956Z AUTO 00000KT 10SM CLR M02/M03 A3016 RMK AO2 SLP213 T10221033 FZRANO
KPIB 130856Z AUTO 00000KT 10SM CLR M01/M03 A3016 RMK AO2 SLP216 T10111028 55003 FZRANO
KPIB 130756Z AUTO 36003KT 10SM CLR 01/M03 A3016 RMK AO2 SLP214 T00111028 FZRANO
KPIB 130656Z AUTO 36006KT 10SM CLR 01/M03 A3016 RMK AO2 SLP213 T00111028 FZRANO
KPIB 130556Z AUTO 35006KT 10SM CLR 03/M02 A3017 RMK AO2 SLP218 T00331022 10094 20022 401560022 58003
KPIB 130456Z AUTO 34007KT 10SM CLR 04/M02 A3018 RMK AO2 SLP221 T00391017
KPIB 130356Z AUTO 32004KT 10SM CLR 03/M01 A3019 RMK AO2 SLP223 T00331011
KPIB 130256Z AUTO 32003KT 10SM CLR 06/M02 A3018 RMK AO2 SLP220 T00561017 53012
KPIB 130156Z AUTO 34005KT 10SM CLR 07/M02 A3017 RMK AO2 SLP217 T00671017
KPIB 130056Z AUTO 33006KT 10SM CLR 07/00 A3016 RMK AO2 SLP213 T00720000
KPIB 122356Z AUTO 32004KT 10SM CLR 09/01 A3015 RMK AO2 SLP208 T00940006 10156 20094 53015
KPIB 122256Z AUTO 32006KT 10SM CLR 12/01 A3013 RMK AO2 SLP204 T01170006
KPIB 122156Z AUTO 33007KT 10SM CLR 14/01 A3011 RMK AO2 SLP196 T01390011
KPIB 122056Z AUTO 32007G16KT 280V350 10SM CLR 15/01 A3010 RMK AO2 SLP192 T01500006 56018
KPIB 121956Z AUTO VRB06KT 10SM CLR 15/02 A3011 RMK AO2 SLP197 T01500017
KPIB 121856Z AUTO 33011G15KT 10SM CLR 14/01 A3012 RMK AO2 SLP201 T01440011
KPIB 121756Z AUTO 35011G15KT 10SM CLR 14/02 A3015 RMK AO2 SLP210 T01440017 10144 20072 58011